Maria Noelle — WDD9564 — position and weather

sailwx.info

Track history (hours):
 
Tides and Currents Weather Stations Pressure Air Temp Water Temp Dewpoint Dewpoint Depression Visibility Wind Speed Wind Dir Waves Ship Positions

Maria Noelle

Owner: MUROS INC, POINT PLEASANT, NJ. More information available from US FCC via Universal Licensing System and Coast Guard Vessel Documentation Center.

Last reported at 2016-Sep-27 13:21 UTC. Time now 2016-Sep-27 13:53 UTC.
Position N 40°06' W 074°00'.

Length 26 m.

Type: Fishing. MMSI: 367313170.

Date/timePositionNaut miles runAvg speedWind from/ knotsBaromVisibWave heightAir tempDewpointWater temp
2016-Sep-27 13:21N 40°06' W 074°00'2 0.1
2016-Sep-26 13:27N 40°06' W 074°02'0 0.0
2016-Sep-24 16:33N 40°06' W 074°02'52 4.0
2016-Sep-24 03:34N 40°16' W 072°56'3 2.7
2016-Sep-24 02:32N 40°15' W 072°58'1 1.2
2016-Sep-24 01:29N 40°16' W 072°57'0 0.4
2016-Sep-24 00:23N 40°15' W 072°57'33 6.8
2016-Sep-23 19:33N 40°08' W 073°39'16 8.2
2016-Sep-23 17:33N 40°06' W 074°00'1 1.1
2016-Sep-23 16:15N 40°06' W 074°02'5 7.0
2016-Sep-23 15:31N 40°07' W 073°56'50 5.6
2016-Sep-23 06:32N 40°18' W 072°52'4 2.0
2016-Sep-23 04:32N 40°16' W 072°56'4 4.3
2016-Sep-23 03:33N 40°16' W 073°01'5 4.7
2016-Sep-23 02:32N 40°15' W 073°07'4 2.1
2016-Sep-23 00:32N 40°15' W 073°13'4 4.2
2016-Sep-22 23:32N 40°15' W 073°18'8 0.7
2016-Sep-22 12:33N 40°12' W 073°27'21 2.6
2016-Sep-22 04:28N 40°16' W 073°00'1 0.9
2016-Sep-22 03:29N 40°17' W 073°01'7 2.2
2016-Sep-22 00:29N 40°15' W 073°09'5 4.0
2016-Sep-21 23:11N 40°15' W 073°16'3 4.9
2016-Sep-21 22:33N 40°14' W 073°20'25 8.2
2016-Sep-21 19:33N 40°08' W 073°51'9 2.9
2016-Sep-21 16:33N 40°06' W 074°02'6 0.8
2016-Sep-21 09:32N 40°07' W 073°55'8 8.3
2016-Sep-21 08:31N 40°10' W 073°45'12 0.3
2016-Sep-19 12:28N 40°06' W 073°60'2 1.7
2016-Sep-19 11:24N 40°06' W 074°02'0 0.0
2016-Sep-19 09:24N 40°06' W 074°02'0 0.0
2016-Sep-19 07:30N 40°06' W 074°02'0 0.0
2016-Sep-19 06:32N 40°06' W 074°02'0 0.0
2016-Sep-19 03:17N 40°06' W 074°02'0 0.0
2016-Sep-19 02:32N 40°06' W 074°02'0 0.0
2016-Sep-19 00:17N 40°06' W 074°02'0 0.0
2016-Sep-18 19:29N 40°06' W 074°02'0 0.0
2016-Sep-18 15:32N 40°06' W 074°02'0 0.0
2016-Sep-18 14:29N 40°06' W 074°02'0 0.0
2016-Sep-18 10:32N 40°06' W 074°02'0 0.0
2016-Sep-18 09:32N 40°06' W 074°02'0 0.0
2016-Sep-18 02:29N 40°06' W 074°02'0 0.0
2016-Sep-18 01:28N 40°06' W 074°02'0 0.0
2016-Sep-18 00:32N 40°06' W 074°02'0 0.0
2016-Sep-17 22:32N 40°06' W 074°02'0 0.0
2016-Sep-17 21:23N 40°06' W 074°02'0 0.0
2016-Sep-17 19:15N 40°06' W 074°02'  
Track history (hours):
 
Tides and Currents Weather Stations Pressure Air Temp Water Temp Dewpoint Dewpoint Depression Visibility Wind Speed Wind Dir Waves Ship Positions

Maria Noelle

Owner: MUROS INC, POINT PLEASANT, NJ. More information available from US FCC via Universal Licensing System and Coast Guard Vessel Documentation Center.

Last reported at 2016-Sep-27 13:21 UTC. Time now 2016-Sep-27 13:53 UTC.
Position N 40°06' W 074°00'.

Length 26 m.

Type: Fishing. MMSI: 367313170.

Date/timePositionNaut miles runAvg speedWind from/ knotsBaromVisibWave heightAir tempDewpointWater temp
2016-Sep-27 13:21N 40°06' W 074°00'2 0.1
2016-Sep-26 13:27N 40°06' W 074°02'0 0.0
2016-Sep-24 16:33N 40°06' W 074°02'52 4.0
2016-Sep-24 03:34N 40°16' W 072°56'3 2.7
2016-Sep-24 02:32N 40°15' W 072°58'1 1.2
2016-Sep-24 01:29N 40°16' W 072°57'0 0.4
2016-Sep-24 00:23N 40°15' W 072°57'33 6.8
2016-Sep-23 19:33N 40°08' W 073°39'16 8.2
2016-Sep-23 17:33N 40°06' W 074°00'1 1.1
2016-Sep-23 16:15N 40°06' W 074°02'5 7.0
2016-Sep-23 15:31N 40°07' W 073°56'50 5.6
2016-Sep-23 06:32N 40°18' W 072°52'4 2.0
2016-Sep-23 04:32N 40°16' W 072°56'4 4.3
2016-Sep-23 03:33N 40°16' W 073°01'5 4.7
2016-Sep-23 02:32N 40°15' W 073°07'4 2.1
2016-Sep-23 00:32N 40°15' W 073°13'4 4.2
2016-Sep-22 23:32N 40°15' W 073°18'8 0.7
2016-Sep-22 12:33N 40°12' W 073°27'21 2.6
2016-Sep-22 04:28N 40°16' W 073°00'1 0.9
2016-Sep-22 03:29N 40°17' W 073°01'7 2.2
2016-Sep-22 00:29N 40°15' W 073°09'5 4.0
2016-Sep-21 23:11N 40°15' W 073°16'3 4.9
2016-Sep-21 22:33N 40°14' W 073°20'25 8.2
2016-Sep-21 19:33N 40°08' W 073°51'9 2.9
2016-Sep-21 16:33N 40°06' W 074°02'6 0.8
2016-Sep-21 09:32N 40°07' W 073°55'8 8.3
2016-Sep-21 08:31N 40°10' W 073°45'12 0.3
2016-Sep-19 12:28N 40°06' W 073°60'2 1.7
2016-Sep-19 11:24N 40°06' W 074°02'0 0.0
2016-Sep-19 09:24N 40°06' W 074°02'0 0.0
2016-Sep-19 07:30N 40°06' W 074°02'0 0.0
2016-Sep-19 06:32N 40°06' W 074°02'0 0.0
2016-Sep-19 03:17N 40°06' W 074°02'0 0.0
2016-Sep-19 02:32N 40°06' W 074°02'0 0.0
2016-Sep-19 00:17N 40°06' W 074°02'0 0.0
2016-Sep-18 19:29N 40°06' W 074°02'0 0.0
2016-Sep-18 15:32N 40°06' W 074°02'0 0.0
2016-Sep-18 14:29N 40°06' W 074°02'0 0.0
2016-Sep-18 10:32N 40°06' W 074°02'0 0.0
2016-Sep-18 09:32N 40°06' W 074°02'0 0.0
2016-Sep-18 02:29N 40°06' W 074°02'0 0.0
2016-Sep-18 01:28N 40°06' W 074°02'0 0.0
2016-Sep-18 00:32N 40°06' W 074°02'0 0.0
2016-Sep-17 22:32N 40°06' W 074°02'0 0.0
2016-Sep-17 21:23N 40°06' W 074°02'0 0.0
2016-Sep-17 19:15N 40°06' W 074°02'  

Dump ship's entire track history